메인 페이지
METAR-TAF:

METAR-TAF

공항 :

Cranfield, 잉글랜드

위도: 52-04N, 경도: 000-37W, 고도: 111m

현재 날씨관측

예보는 22분 전, 12:50시(UTC)에 발표되었습니다.
남서15kt
온도 19°C
습도 88%
기압 1009 hPa
시정 10km 이상
고도 1000ft 상공 구름 많음

METAR: EGTC 251250Z 22015KT 9999 BKN010 19/17 Q1009

시각: 14:12 (13:12 UTC)

예보

예보는 2 시간 17분 전, 10:55시(UTC)에 발표되었습니다.
예보 대상 시간: 25일 12시부터 25일 18시까지 (UTC)
남서12kt
시정 10km 이상
고도 1000ft 상공 구름 많음
전환 중
25일 12시부터 25일 14시까지 (UTC)
고도 2000ft 상공 구름 많음

TAF: EGTC 251055Z 2512/2518 22012KT 9999 BKN010 BECMG 2512/2514 BKN020

4,000개 이상의 공항 관측 자료 및 예보 (METAR 및 TAF 보고).

지도상에서 검색 가능한 기상관측소가 노란 점과 빨간 점으로 표시되어 있습니다.

기상관측소 명을 보려면 표시 위로 마우스를 이동하세요.

날씨 관측과 예보를 보려면 클릭하세요.

지도 변경 : 확대하려면 엑스 표시가 있는 녹색 버튼, 축소하려면 빼기 표시가 있는 녹색 버튼, 다음 페이지의 지도를 보려면 녹색 화살표를 클릭하세요.


METAR-TAF: